createdAt,value
2019-01-05T00:02:34.473Z,100006.05
2019-01-05T00:05:20.774Z,100012.55
2019-01-05T00:08:09.389Z,100023.83
2019-01-05T00:10:56.638Z,100024.70
2019-01-05T00:13:43.151Z,100013.38
2019-01-05T00:16:29.728Z,100017.28
2019-01-05T00:19:00.545Z,100010.34
2019-01-05T00:21:44.347Z,99999.94
2019-01-05T00:24:31.548Z,99999.98
2019-01-05T00:27:19.316Z,99999.56
2019-01-05T00:30:06.470Z,99993.07
2019-01-05T00:32:56.617Z,99985.31
2019-01-05T00:35:38.635Z,99983.58
2019-01-05T00:38:26.938Z,99989.66
2019-01-05T00:41:10.663Z,99974.09
2019-01-05T00:43:56.589Z,99968.89
2019-01-05T00:46:28.888Z,99959.36
2019-01-05T00:49:07.930Z,99967.17
2019-01-05T00:51:56.477Z,99949.84
2019-01-05T00:54:39.054Z,99959.80
2019-01-05T00:57:10.304Z,99970.20
2019-01-05T00:59:44.218Z,99955.04
2019-01-05T01:02:23.540Z,99954.61
2019-01-05T01:05:11.160Z,99955.03
2019-01-05T01:07:41.398Z,99946.80
2019-01-05T01:10:26.654Z,99941.61
2019-01-05T01:13:06.654Z,99937.71
2019-01-05T01:15:52.762Z,99941.21
2019-01-05T01:18:23.390Z,99941.22
2019-01-05T01:21:10.626Z,99936.02
2019-01-05T01:23:45.463Z,99932.55
2019-01-05T01:26:34.170Z,99923.02
2019-01-05T01:29:22.588Z,99921.30
2019-01-05T01:32:04.938Z,99920.86
2019-01-05T01:34:54.089Z,99916.95
2019-01-05T01:37:27.513Z,99916.95
2019-01-05T01:40:15.677Z,99905.26
2019-01-05T01:42:45.882Z,99903.09
2019-01-05T01:45:20.859Z,99909.55
2019-01-05T01:48:09.580Z,99892.22
2019-01-05T01:50:57.049Z,99903.95
2019-01-05T01:53:32.931Z,99877.06
2019-01-05T01:56:04.816Z,99866.22
2019-01-05T01:58:38.026Z,99843.30
2019-01-05T02:01:19.931Z,99842.40
2019-01-05T02:03:59.998Z,99841.95
2019-01-05T02:06:35.073Z,99841.95
2019-01-05T02:09:10.648Z,99837.18
2019-01-05T02:11:43.865Z,99832.84
2019-01-05T02:14:34.290Z,99834.13
2019-01-05T02:17:16.602Z,99813.33
2019-01-05T02:19:55.399Z,99809.85
2019-01-05T02:23:01.621Z,99797.72
2019-01-05T02:25:52.217Z,99786.83
2019-01-05T02:29:04.743Z,99782.05
2019-01-05T02:32:05.726Z,99782.05
2019-01-05T02:35:01.248Z,99783.34
2019-01-05T02:37:34.444Z,99771.20
2019-01-05T02:40:28.507Z,99779.86
2019-01-05T02:43:17.328Z,99766.00
2019-01-05T02:46:12.916Z,99760.81
2019-01-05T02:49:25.135Z,99753.88
2019-01-05T02:52:14.912Z,99742.59
2019-01-05T02:55:04.632Z,99747.38
2019-01-05T02:58:00.046Z,99733.06
2019-01-05T03:01:09.217Z,99736.11
2019-01-05T03:04:15.345Z,99734.81
2019-01-05T03:07:20.449Z,99722.69
2019-01-05T03:10:18.985Z,99722.69
2019-01-05T03:13:19.576Z,99713.65
2019-01-05T03:16:12.585Z,99711.86
2019-01-05T03:19:11.141Z,99707.94
2019-01-05T03:22:20.622Z,99690.59
2019-01-05T03:25:15.936Z,99693.61
2019-01-05T03:28:39.327Z,99678.44
2019-01-05T03:31:37.618Z,99665.44
2019-01-05T03:34:39.477Z,99670.64
2019-01-05T03:37:34.730Z,99656.77
2019-01-05T03:40:19.664Z,99635.53
2019-01-05T03:43:17.075Z,99628.16
2019-01-05T03:46:15.446Z,99618.61
2019-01-05T03:48:54.584Z,99608.64
2019-01-05T03:51:55.071Z,99607.70
2019-01-05T03:54:46.705Z,99600.32
2019-01-05T03:57:37.802Z,99592.05
2019-01-05T04:00:22.904Z,99596.37
2019-01-05T04:03:30.680Z,99593.29
2019-01-05T04:06:39.129Z,99588.91
2019-01-05T04:09:42.459Z,99584.11
2019-01-05T04:15:56.367Z,99562.36
2019-01-05T04:18:59.369Z,99558.84
2019-01-05T04:22:21.577Z,99562.69
2019-01-05T04:25:20.819Z,99539.70
2019-01-05T04:28:22.263Z,99539.25
2019-01-05T04:31:30.576Z,99523.17
2019-01-05T04:34:21.339Z,99507.97
2019-01-05T04:37:09.356Z,99501.88
2019-01-05T04:40:10.493Z,99504.87
2019-01-05T04:42:49.240Z,99509.57
2019-01-05T04:45:31.129Z,99503.89
2019-01-05T04:48:41.923Z,99512.51
2019-01-05T04:51:24.134Z,99498.16
2019-01-05T04:54:15.410Z,99491.19
2019-01-05T04:57:34.148Z,99490.28
2019-01-05T05:00:14.237Z,99484.14
2019-01-05T05:03:22.027Z,99470.29
2019-01-05T05:06:20.410Z,99482.37
2019-01-05T05:09:35.746Z,99494.91
2019-01-05T05:12:35.552Z,99488.36
2019-01-05T05:15:37.311Z,99472.71
2019-01-05T05:18:29.994Z,99472.71
2019-01-05T05:21:13.098Z,99470.51
2019-01-05T05:24:20.962Z,99468.30
2019-01-05T05:27:05.701Z,99466.60
2019-01-05T05:30:09.090Z,99467.41
2019-01-05T05:33:24.806Z,99458.30
2019-01-05T05:36:15.735Z,99463.46
2019-01-05T05:39:22.141Z,99463.46
2019-01-05T05:42:48.865Z,99451.28
2019-01-05T05:45:47.276Z,99435.63
2019-01-05T05:48:25.966Z,99433.05
2019-01-05T05:51:24.422Z,99439.09
2019-01-05T05:54:02.940Z,99428.22
2019-01-05T05:56:57.051Z,99428.22
2019-01-05T06:00:09.164Z,99419.08
2019-01-05T06:03:00.442Z,99429.89
2019-01-05T06:05:42.303Z,99421.20
2019-01-05T06:08:18.186Z,99437.63
2019-01-05T06:11:20.288Z,99445.42
2019-01-05T06:14:26.177Z,99436.72
2019-01-05T06:17:29.620Z,99418.47
2019-01-05T06:20:17.789Z,99421.07
2019-01-05T06:23:34.090Z,99428.84
2019-01-05T06:26:29.863Z,99415.30
2019-01-05T06:29:08.335Z,99421.70
2019-01-05T06:32:02.042Z,99416.84
2019-01-05T06:34:53.043Z,99418.80
2019-01-05T06:37:37.264Z,99413.44
2019-01-05T06:40:43.346Z,99412.58
2019-01-05T06:43:55.600Z,99418.00
2019-01-05T06:47:05.338Z,99427.95
2019-01-05T06:50:07.668Z,99430.34
2019-01-05T06:52:55.694Z,99430.34
2019-01-05T06:55:37.541Z,99434.70
2019-01-05T06:58:42.518Z,99429.84
2019-01-05T07:02:00.910Z,99431.93
2019-01-05T07:04:42.846Z,99428.02
2019-01-05T07:07:52.056Z,99420.58
2019-01-05T07:10:36.661Z,99402.35
2019-01-05T07:13:35.394Z,99397.16
2019-01-05T07:16:38.854Z,99391.03
2019-01-05T07:20:00.271Z,99395.36
2019-01-05T07:23:15.933Z,99401.88
2019-01-05T07:26:18.615Z,99409.65
2019-01-05T07:29:24.986Z,99403.04
2019-01-05T07:32:21.344Z,99399.95
2019-01-05T07:35:09.557Z,99390.38
2019-01-05T07:38:02.368Z,99392.02
2019-01-05T07:41:18.432Z,99403.25
2019-01-05T07:44:18.528Z,99411.91
2019-01-05T07:47:34.142Z,99416.27
2019-01-05T07:50:13.133Z,99418.88
2019-01-05T07:53:24.376Z,99427.06
2019-01-05T07:56:29.292Z,99439.96
2019-01-05T07:59:39.922Z,99433.80
2019-01-05T08:02:28.441Z,99435.45
2019-01-05T08:05:37.590Z,99444.86
2019-01-05T08:08:22.916Z,99436.08
2019-01-05T08:11:20.747Z,99433.41
2019-01-05T08:14:08.621Z,99447.67
2019-01-05T08:17:03.977Z,99455.05
2019-01-05T08:20:02.827Z,99447.48
2019-01-05T08:22:57.100Z,99447.87
2019-01-05T08:25:48.486Z,99444.40
2019-01-05T08:28:52.604Z,99442.62
2019-01-05T08:32:01.789Z,99443.77
2019-01-05T08:34:53.198Z,99451.88
2019-01-05T08:38:02.571Z,99454.97
2019-01-05T08:41:00.439Z,99458.92
2019-01-05T08:44:23.625Z,99459.37
2019-01-05T08:47:16.102Z,99462.84
2019-01-05T08:50:13.283Z,99476.85
2019-01-05T08:53:18.113Z,99479.88
2019-01-05T08:56:24.006Z,99482.05
2019-01-05T08:59:02.519Z,99468.92
2019-01-05T09:02:21.050Z,99477.17
2019-01-05T09:05:08.555Z,99484.12
2019-01-05T09:07:48.175Z,99485.90
2019-01-05T09:10:33.619Z,99481.06
2019-01-05T09:13:42.796Z,99484.05
2019-01-05T09:16:30.372Z,99483.99
2019-01-05T09:19:18.316Z,99486.57
2019-01-05T09:21:52.480Z,99489.95
2019-01-05T09:24:54.541Z,99483.70
2019-01-05T09:27:33.670Z,99491.48
2019-01-05T09:30:30.360Z,99489.31
2019-01-05T09:33:24.382Z,99487.88
2019-01-05T09:36:27.643Z,99484.34
2019-01-05T09:39:26.284Z,99487.33
2019-01-05T09:42:26.774Z,99496.38
2019-01-05T09:45:38.834Z,99488.55
2019-01-05T09:48:58.641Z,99489.81
2019-01-05T09:52:00.317Z,99494.08
2019-01-05T09:55:07.079Z,99490.55
2019-01-05T09:57:49.428Z,99484.80
2019-01-05T10:01:02.937Z,99493.98
2019-01-05T10:03:44.315Z,99491.84
2019-01-05T10:06:37.967Z,99488.69
2019-01-05T10:09:19.633Z,99488.28
2019-01-05T10:12:04.806Z,99494.84
2019-01-05T10:14:55.521Z,99497.91
2019-01-05T10:17:49.518Z,99497.14
2019-01-05T10:21:05.957Z,99498.89
2019-01-05T10:24:03.104Z,99500.20
2019-01-05T10:27:04.617Z,99499.56
2019-01-05T10:30:15.731Z,99496.43
2019-01-05T10:33:18.368Z,99491.52
2019-01-05T10:36:32.986Z,99479.64
2019-01-05T10:39:31.873Z,99513.22
2019-01-05T10:42:29.045Z,99506.69
2019-01-05T10:45:32.600Z,99505.00
2019-01-05T10:48:35.943Z,99519.47
2019-01-05T10:51:33.053Z,99504.38
2019-01-05T10:54:48.700Z,99523.91
2019-01-05T10:58:02.862Z,99526.94
2019-01-05T11:00:44.404Z,99519.23
2019-01-05T11:03:42.089Z,99529.30
2019-01-05T11:06:48.451Z,99538.59
2019-01-05T11:09:59.703Z,99547.07
2019-01-05T11:12:47.987Z,99543.43
2019-01-05T11:15:39.295Z,99534.59
2019-01-05T11:18:33.230Z,99539.92
2019-01-05T11:21:38.352Z,99556.09
2019-01-05T11:24:20.447Z,99560.05
2019-01-05T11:27:40.165Z,99557.33
2019-01-05T11:30:35.723Z,99555.61
2019-01-05T11:33:20.763Z,99558.70
2019-01-05T11:36:14.139Z,99556.56
2019-01-05T11:38:59.330Z,99557.39
2019-01-05T11:42:11.690Z,99558.30
2019-01-05T11:45:03.149Z,99564.84
2019-01-05T11:47:54.385Z,99566.03
2019-01-05T11:50:38.451Z,99567.22
2019-01-05T11:53:49.342Z,99573.57
2019-01-05T11:57:14.424Z,99576.02
2019-01-05T12:00:04.165Z,99578.44
2019-01-05T12:03:05.916Z,99597.44
2019-01-05T12:05:44.658Z,99595.33
2019-01-05T12:08:32.279Z,99597.11
2019-01-05T12:11:17.228Z,99597.17
2019-01-05T12:14:16.156Z,99600.70
2019-01-05T12:16:51.987Z,99616.22
2019-01-05T12:19:28.023Z,99622.28
2019-01-05T12:22:12.777Z,99619.53
2019-01-05T12:25:12.834Z,99626.59
2019-01-05T12:28:09.346Z,99616.25
2019-01-05T12:31:06.590Z,99640.13
2019-01-05T12:34:29.629Z,99630.66
2019-01-05T12:37:51.308Z,99636.10
2019-01-05T12:40:57.579Z,99631.52
2019-01-05T12:43:50.086Z,99636.90
2019-01-05T12:46:47.217Z,99645.95
2019-01-05T12:49:28.521Z,99655.81
2019-01-05T12:52:10.330Z,99648.87
2019-01-05T12:55:12.723Z,99653.29
2019-01-05T12:58:17.635Z,99658.63
2019-01-05T13:01:16.641Z,99669.61
2019-01-05T13:04:13.923Z,99680.59
2019-01-05T13:07:31.107Z,99686.73
2019-01-05T13:10:25.328Z,99685.00
2019-01-05T13:13:31.277Z,99691.09
2019-01-05T13:16:37.577Z,99690.20
2019-01-05T13:19:31.854Z,99691.45
2019-01-05T13:22:32.414Z,99708.41
2019-01-05T13:25:55.711Z,99719.30
2019-01-05T13:28:49.396Z,99716.74
2019-01-05T13:31:54.996Z,99718.10
2019-01-05T13:35:06.429Z,99727.22
2019-01-05T13:37:43.625Z,99729.86
2019-01-05T13:40:42.901Z,99739.11
2019-01-05T13:43:38.967Z,99740.91
2019-01-05T13:46:18.127Z,99740.14
2019-01-05T13:48:57.200Z,99745.50
2019-01-05T13:51:45.210Z,99754.63
2019-01-05T13:54:18.323Z,99749.85
2019-01-05T13:56:48.426Z,99751.58
2019-01-05T13:59:24.921Z,99757.67
2019-01-05T14:02:11.747Z,99762.02
2019-01-05T14:04:59.718Z,99775.55
2019-01-05T14:07:46.189Z,99781.28
2019-01-05T14:10:34.768Z,99786.59
2019-01-05T14:13:07.797Z,99784.55
2019-01-05T14:15:43.746Z,99790.75
2019-01-05T14:18:16.823Z,99800.89
2019-01-05T14:21:02.061Z,99806.62
2019-01-05T14:23:32.228Z,99806.32
2019-01-05T14:26:11.204Z,99821.27
2019-01-05T14:28:53.453Z,99809.23
2019-01-05T14:31:42.012Z,99818.02
2019-01-05T14:34:21.196Z,99823.75
2019-01-05T14:37:00.540Z,99819.03
2019-01-05T14:39:33.098Z,99826.00
2019-01-05T14:42:11.829Z,99831.27
2019-01-05T14:44:41.924Z,99837.56
2019-01-05T14:47:12.099Z,99837.56
2019-01-05T14:49:47.969Z,99841.05
2019-01-05T14:52:21.127Z,99844.61
2019-01-05T14:54:51.307Z,99848.61
2019-01-05T14:57:37.965Z,99848.61
2019-01-05T15:00:11.497Z,99844.83
2019-01-05T15:02:53.914Z,99851.38
2019-01-05T15:05:24.036Z,99851.38
2019-01-05T15:08:06.217Z,99853.61
2019-01-05T15:10:36.368Z,99846.19
2019-01-05T15:13:22.769Z,99850.88
2019-01-05T15:15:58.741Z,99850.88
2019-01-05T15:18:40.679Z,99864.30
2019-01-05T15:21:10.780Z,99864.67
2019-01-05T15:23:41.027Z,99856.81
2019-01-05T15:26:27.323Z,99852.85
2019-01-05T15:29:03.018Z,99852.85
2019-01-05T15:31:33.398Z,99847.98
2019-01-05T15:34:15.694Z,99847.98
2019-01-05T15:37:02.102Z,99851.45
2019-01-05T15:39:48.204Z,99860.10
2019-01-05T15:42:35.630Z,99863.55
2019-01-05T15:45:18.241Z,99867.88
2019-01-05T15:47:57.144Z,99879.16
2019-01-05T15:50:33.256Z,99882.61
2019-01-05T15:53:15.464Z,99882.61
2019-01-05T15:55:45.579Z,99884.80
2019-01-05T15:58:21.858Z,99901.74
2019-01-05T16:01:08.217Z,99891.27
2019-01-05T16:03:54.880Z,99893.05
2019-01-05T16:06:25.009Z,99893.49
2019-01-05T16:09:07.235Z,99899.13
2019-01-05T16:11:42.132Z,99893.07
2019-01-05T16:14:29.136Z,99899.15
2019-01-05T16:17:01.936Z,99904.81
2019-01-05T16:19:44.092Z,99895.28
2019-01-05T16:22:26.239Z,99895.73
2019-01-05T16:25:12.966Z,99892.27
2019-01-05T16:27:52.347Z,99892.27
2019-01-05T16:30:28.300Z,99892.75
2019-01-05T16:33:13.422Z,99899.67
2019-01-05T16:35:58.724Z,99903.56
2019-01-05T16:38:28.838Z,99907.89
2019-01-05T16:41:10.836Z,99911.34
2019-01-05T16:43:49.955Z,99902.20
2019-01-05T16:46:28.905Z,99909.50
2019-01-05T16:49:01.457Z,99912.08
2019-01-05T16:51:43.400Z,99909.86
2019-01-05T16:54:13.518Z,99909.81
2019-01-05T16:56:46.315Z,99918.44
2019-01-05T16:59:19.043Z,99914.92
2019-01-05T17:01:49.246Z,99914.06
2019-01-05T17:04:27.920Z,99918.80
2019-01-05T17:07:13.917Z,99917.47
2019-01-05T17:09:46.850Z,99911.36
2019-01-05T17:12:32.986Z,99909.09
2019-01-05T17:15:03.184Z,99919.50
2019-01-05T17:17:35.741Z,99912.95
2019-01-05T17:20:08.578Z,99915.52
2019-01-05T17:22:38.782Z,99913.78
2019-01-05T17:25:11.705Z,99919.84
2019-01-05T17:27:41.822Z,99920.27
2019-01-05T17:30:15.216Z,99928.91
2019-01-05T17:32:51.350Z,99931.52
2019-01-05T17:35:21.651Z,99931.52
2019-01-05T17:37:51.759Z,99928.02
2019-01-05T17:40:24.372Z,99928.00
2019-01-05T17:43:08.424Z,99946.69
2019-01-05T17:45:43.521Z,99930.61
2019-01-05T17:48:30.395Z,99932.41
2019-01-05T17:51:12.309Z,99935.53
2019-01-05T17:53:54.472Z,99948.19
2019-01-05T17:56:32.656Z,99945.63
2019-01-05T17:59:18.766Z,99951.38
2019-01-05T18:01:54.929Z,99947.48
2019-01-05T18:04:25.126Z,99949.23
2019-01-05T18:07:00.904Z,99950.49
2019-01-05T18:09:46.233Z,99951.78
2019-01-05T18:12:32.426Z,99945.27
2019-01-05T18:15:11.530Z,99961.38
2019-01-05T18:17:41.730Z,99958.76
2019-01-05T18:20:14.967Z,99966.16
2019-01-05T18:23:01.113Z,99968.35
2019-01-05T18:25:49.390Z,99972.72
2019-01-05T18:28:31.546Z,99976.64
2019-01-05T18:31:04.391Z,99979.69
2019-01-05T18:33:47.739Z,99980.58
2019-01-05T18:36:17.851Z,99979.73
2019-01-05T18:39:05.634Z,99986.25
2019-01-05T18:41:47.893Z,99988.00
2019-01-05T18:44:23.927Z,99984.13
2019-01-05T18:47:09.350Z,99998.05
2019-01-05T18:49:39.637Z,99996.33
2019-01-05T18:52:26.342Z,99997.22
2019-01-05T18:54:56.615Z,100004.17
2019-01-05T18:57:43.077Z,100009.84
2019-01-05T19:00:16.000Z,100017.23
2019-01-05T19:02:48.985Z,100013.33
2019-01-05T19:05:25.118Z,100017.25
2019-01-05T19:08:11.986Z,100018.99
2019-01-05T19:10:58.436Z,100018.14
2019-01-05T19:13:28.548Z,100027.31
2019-01-05T19:16:17.262Z,100026.03
2019-01-05T19:18:49.805Z,100020.41
2019-01-05T19:21:20.073Z,100030.01
2019-01-05T19:23:55.754Z,100019.59
2019-01-05T19:26:31.965Z,100022.64
2019-01-05T19:29:07.649Z,100040.07
2019-01-05T19:31:43.507Z,100041.38
2019-01-05T19:34:20.214Z,100023.58
2019-01-05T19:37:06.935Z,100035.77
2019-01-05T19:39:46.593Z,100047.50
2019-01-05T19:42:16.728Z,100047.52
2019-01-05T19:44:59.020Z,100045.36
2019-01-05T19:47:32.066Z,100050.14
2019-01-05T19:50:15.208Z,100060.17
2019-01-05T19:53:01.649Z,100068.45
2019-01-05T19:55:40.531Z,100061.06
2019-01-05T19:58:27.243Z,100058.90
2019-01-05T20:00:58.134Z,100062.81
2019-01-05T20:03:29.334Z,100066.30
2019-01-05T20:05:59.449Z,100074.11
2019-01-05T20:08:31.780Z,100068.91
2019-01-05T20:11:01.943Z,100070.66
2019-01-05T20:13:48.572Z,100068.06
2019-01-05T20:16:34.576Z,100076.35
2019-01-05T20:19:23.195Z,100076.35
2019-01-05T20:22:08.407Z,100083.27
2019-01-05T20:24:47.439Z,100072.45
2019-01-05T20:27:34.228Z,100070.73
2019-01-05T20:30:19.682Z,100074.20
2019-01-05T20:33:05.792Z,100074.20
2019-01-05T20:35:38.532Z,100075.50
2019-01-05T20:38:14.106Z,100065.08
2019-01-05T20:40:47.928Z,100075.05
2019-01-05T20:43:20.779Z,100075.94
2019-01-05T20:45:50.862Z,100066.84
2019-01-05T20:48:29.986Z,100070.33
2019-01-05T20:51:06.681Z,100074.67
2019-01-05T20:53:52.034Z,100080.37
2019-01-05T20:56:28.225Z,100075.17
2019-01-05T20:58:58.405Z,100079.52
2019-01-05T21:01:44.816Z,100079.97
2019-01-05T21:04:18.026Z,100075.20
2019-01-05T21:06:50.575Z,100087.34
2019-01-05T21:09:39.138Z,100075.24
2019-01-05T21:12:18.060Z,100075.24
2019-01-05T21:14:48.219Z,100096.08
2019-01-05T21:17:18.338Z,100081.34
2019-01-05T21:19:51.263Z,100081.34
2019-01-05T21:22:37.547Z,100088.27
2019-01-05T21:25:24.353Z,100096.53
2019-01-05T21:28:00.691Z,100096.53
2019-01-05T21:30:39.798Z,100109.55
2019-01-05T21:33:16.057Z,100099.61
2019-01-05T21:35:52.301Z,100105.25
2019-01-05T21:38:32.576Z,100100.48
2019-01-05T21:41:08.932Z,100106.55
2019-01-05T21:43:47.799Z,100121.73
2019-01-05T21:46:35.908Z,100111.77
2019-01-05T21:49:17.941Z,100121.74
2019-01-05T21:51:52.015Z,100114.38
2019-01-05T21:54:22.108Z,100120.45
2019-01-05T21:57:01.105Z,100120.91
2019-01-05T21:59:47.523Z,100119.61
2019-01-05T22:02:17.718Z,100124.39
2019-01-05T22:04:53.409Z,100124.82
2019-01-05T22:07:23.682Z,100126.98
2019-01-05T22:09:56.727Z,100132.63
2019-01-05T22:12:26.988Z,100134.80
2019-01-05T22:15:00.263Z,100132.63
2019-01-05T22:17:46.546Z,100136.09
2019-01-05T22:20:29.040Z,100135.23
2019-01-05T22:23:15.577Z,100146.08
2019-01-05T22:26:13.021Z,100147.38
2019-01-05T22:28:59.653Z,100151.71
2019-01-05T22:31:46.035Z,100144.77
2019-01-05T22:34:18.678Z,100150.84
2019-01-05T22:36:57.331Z,100149.97
2019-01-05T22:39:30.162Z,100152.61
2019-01-05T22:42:16.615Z,100151.73
2019-01-05T22:45:05.846Z,100157.81
2019-01-05T22:47:38.706Z,100153.91
2019-01-05T22:50:27.566Z,100155.20
2019-01-05T22:53:07.584Z,100154.34
2019-01-05T22:55:40.359Z,100167.34
2019-01-05T22:58:16.273Z,100169.50
2019-01-05T23:01:03.112Z,100169.53
2019-01-05T23:03:49.779Z,100171.27
2019-01-05T23:06:19.908Z,100173.86
2019-01-05T23:08:52.552Z,100166.49
2019-01-05T23:11:32.575Z,100161.29
2019-01-05T23:14:18.857Z,100162.16
2019-01-05T23:17:05.119Z,100163.89
2019-01-05T23:19:35.230Z,100169.95
2019-01-05T23:22:20.461Z,100166.06
2019-01-05T23:24:50.558Z,100164.76
2019-01-05T23:27:26.703Z,100168.66
2019-01-05T23:30:13.276Z,100165.63
2019-01-05T23:32:46.408Z,100176.89
2019-01-05T23:35:28.807Z,100167.79
2019-01-05T23:38:15.255Z,100163.89
2019-01-05T23:40:54.325Z,100172.99
2019-01-05T23:43:41.127Z,100166.05
2019-01-05T23:46:13.172Z,100163.89
2019-01-05T23:49:00.076Z,100175.59
2019-01-05T23:51:30.240Z,100163.45
2019-01-05T23:54:01.279Z,100160.42
2019-01-05T23:56:49.843Z,100164.32
2019-01-05T23:59:24.418Z,100159.12
